sensor_id;sensor_type;location;lat;lon;timestamp;temperature;humidity
21666;DHT22;10994;45.486;9.190;2022-11-20T00:00:49;11.30;99.90
21666;DHT22;10994;45.486;9.190;2022-11-20T00:03:15;11.30;99.90
21666;DHT22;10994;45.486;9.190;2022-11-20T00:05:40;11.30;99.90
21666;DHT22;10994;45.486;9.190;2022-11-20T00:08:06;11.40;99.90
21666;DHT22;10994;45.486;9.190;2022-11-20T00:10:32;11.40;99.90
21666;DHT22;10994;45.486;9.190;2022-11-20T00:12:58;11.40;99.90
21666;DHT22;10994;45.486;9.190;2022-11-20T00:15:24;11.30;99.90
21666;DHT22;10994;45.486;9.190;2022-11-20T00:17:50;11.30;99.90
21666;DHT22;10994;45.486;9.190;2022-11-20T00:20:16;11.30;99.90
21666;DHT22;10994;45.486;9.190;2022-11-20T00:22:41;11.40;99.90
21666;DHT22;10994;45.486;9.190;2022-11-20T00:25:07;11.40;99.90
21666;DHT22;10994;45.486;9.190;2022-11-20T00:27:33;11.40;99.90
21666;DHT22;10994;45.486;9.190;2022-11-20T00:29:59;11.40;99.90
21666;DHT22;10994;45.486;9.190;2022-11-20T00:32:24;11.40;99.90
21666;DHT22;10994;45.486;9.190;2022-11-20T00:34:50;11.40;99.90
21666;DHT22;10994;45.486;9.190;2022-11-20T00:37:16;11.40;99.90
21666;DHT22;10994;45.486;9.190;2022-11-20T00:39:41;11.30;99.90
21666;DHT22;10994;45.486;9.190;2022-11-20T00:42:07;11.30;99.90
21666;DHT22;10994;45.486;9.190;2022-11-20T00:44:33;11.10;99.90
21666;DHT22;10994;45.486;9.190;2022-11-20T00:46:58;11.10;99.90
21666;DHT22;10994;45.486;9.190;2022-11-20T00:49:24;11.20;99.90
21666;DHT22;10994;45.486;9.190;2022-11-20T00:51:50;11.20;99.90
21666;DHT22;10994;45.486;9.190;2022-11-20T00:54:15;11.20;99.90
21666;DHT22;10994;45.486;9.190;2022-11-20T00:56:41;11.20;99.90
21666;DHT22;10994;45.486;9.190;2022-11-20T00:59:09;11.00;99.90
21666;DHT22;10994;45.486;9.190;2022-11-20T04:03:34;10.80;99.90
21666;DHT22;10994;45.486;9.190;2022-11-20T04:06:21;10.40;99.90
21666;DHT22;10994;45.486;9.190;2022-11-20T04:08:47;10.40;99.90
21666;DHT22;10994;45.486;9.190;2022-11-20T04:11:19;10.40;99.90
21666;DHT22;10994;45.486;9.190;2022-11-20T04:13:50;10.40;99.90
21666;DHT22;10994;45.486;9.190;2022-11-20T04:16:16;10.40;99.90
21666;DHT22;10994;45.486;9.190;2022-11-20T04:18:42;10.30;99.90
21666;DHT22;10994;45.486;9.190;2022-11-20T04:21:08;10.00;99.90
21666;DHT22;10994;45.486;9.190;2022-11-20T04:23:34;9.80;99.90
21666;DHT22;10994;45.486;9.190;2022-11-20T04:26:08;9.50;99.90
21666;DHT22;10994;45.486;9.190;2022-11-20T04:28:34;9.30;99.90
21666;DHT22;10994;45.486;9.190;2022-11-20T04:31:12;9.30;99.90
21666;DHT22;10994;45.486;9.190;2022-11-20T04:33:38;9.30;99.90
21666;DHT22;10994;45.486;9.190;2022-11-20T04:36:07;9.20;99.90
21666;DHT22;10994;45.486;9.190;2022-11-20T04:38:33;9.20;99.90
21666;DHT22;10994;45.486;9.190;2022-11-20T04:41:04;9.30;99.90
21666;DHT22;10994;45.486;9.190;2022-11-20T04:43:30;9.40;99.90
21666;DHT22;10994;45.486;9.190;2022-11-20T04:45:57;9.50;99.90
21666;DHT22;10994;45.486;9.190;2022-11-20T04:48:23;9.50;99.90
21666;DHT22;10994;45.486;9.190;2022-11-20T04:50:50;9.60;99.90
21666;DHT22;10994;45.486;9.190;2022-11-20T04:53:15;9.50;99.90
21666;DHT22;10994;45.486;9.190;2022-11-20T04:55:41;9.60;99.90
21666;DHT22;10994;45.486;9.190;2022-11-20T04:58:07;9.60;99.90
21666;DHT22;10994;45.486;9.190;2022-11-20T05:00:32;9.60;99.90
21666;DHT22;10994;45.486;9.190;2022-11-20T05:02:58;9.60;99.90
21666;DHT22;10994;45.486;9.190;2022-11-20T05:05:24;9.40;99.90
21666;DHT22;10994;45.486;9.190;2022-11-20T05:07:49;9.30;99.90
21666;DHT22;10994;45.486;9.190;2022-11-20T05:10:15;9.40;99.90
21666;DHT22;10994;45.486;9.190;2022-11-20T05:12:41;9.50;99.90
21666;DHT22;10994;45.486;9.190;2022-11-20T05:15:07;9.50;99.90
21666;DHT22;10994;45.486;9.190;2022-11-20T05:17:33;9.50;99.90
21666;DHT22;10994;45.486;9.190;2022-11-20T05:19:58;9.70;99.90
21666;DHT22;10994;45.486;9.190;2022-11-20T05:22:24;9.70;99.90
21666;DHT22;10994;45.486;9.190;2022-11-20T05:24:50;9.60;99.90
21666;DHT22;10994;45.486;9.190;2022-11-20T05:27:16;9.60;99.90
21666;DHT22;10994;45.486;9.190;2022-11-20T05:29:41;9.70;99.90
21666;DHT22;10994;45.486;9.190;2022-11-20T05:32:07;9.60;99.90
21666;DHT22;10994;45.486;9.190;2022-11-20T05:34:35;9.50;99.90
21666;DHT22;10994;45.486;9.190;2022-11-20T05:37:01;9.50;99.90
21666;DHT22;10994;45.486;9.190;2022-11-20T05:39:27;9.50;99.90
21666;DHT22;10994;45.486;9.190;2022-11-20T05:41:53;9.50;99.90
21666;DHT22;10994;45.486;9.190;2022-11-20T05:44:38;9.60;99.90
21666;DHT22;10994;45.486;9.190;2022-11-20T05:47:05;9.70;99.90
21666;DHT22;10994;45.486;9.190;2022-11-20T05:49:31;9.70;99.90
21666;DHT22;10994;45.486;9.190;2022-11-20T05:51:57;9.70;99.90
21666;DHT22;10994;45.486;9.190;2022-11-20T05:54:22;9.60;99.90
21666;DHT22;10994;45.486;9.190;2022-11-20T05:56:48;9.40;99.90
21666;DHT22;10994;45.486;9.190;2022-11-20T05:59:13;9.20;99.90
21666;DHT22;10994;45.486;9.190;2022-11-20T06:01:39;9.00;99.90
21666;DHT22;10994;45.486;9.190;2022-11-20T06:04:05;9.00;99.90
21666;DHT22;10994;45.486;9.190;2022-11-20T06:06:30;8.90;99.90
21666;DHT22;10994;45.486;9.190;2022-11-20T06:08:56;8.80;99.90
21666;DHT22;10994;45.486;9.190;2022-11-20T06:11:24;8.60;99.90
21666;DHT22;10994;45.486;9.190;2022-11-20T06:13:51;8.70;99.90
21666;DHT22;10994;45.486;9.190;2022-11-20T06:16:18;8.70;99.90
21666;DHT22;10994;45.486;9.190;2022-11-20T06:18:45;8.70;99.90
21666;DHT22;10994;45.486;9.190;2022-11-20T06:21:21;8.70;99.90
21666;DHT22;10994;45.486;9.190;2022-11-20T06:23:49;8.80;99.90
21666;DHT22;10994;45.486;9.190;2022-11-20T06:26:19;8.80;99.90
21666;DHT22;10994;45.486;9.190;2022-11-20T06:28:45;8.60;99.90
21666;DHT22;10994;45.486;9.190;2022-11-20T06:31:13;8.60;99.90
21666;DHT22;10994;45.486;9.190;2022-11-20T06:33:40;8.60;99.90
21666;DHT22;10994;45.486;9.190;2022-11-20T06:36:06;8.50;99.90
21666;DHT22;10994;45.486;9.190;2022-11-20T06:38:32;8.40;99.90
21666;DHT22;10994;45.486;9.190;2022-11-20T06:40:58;8.40;99.90
21666;DHT22;10994;45.486;9.190;2022-11-20T06:43:24;8.50;99.90
21666;DHT22;10994;45.486;9.190;2022-11-20T06:45:53;8.70;99.90
21666;DHT22;10994;45.486;9.190;2022-11-20T06:48:19;8.50;99.90
21666;DHT22;10994;45.486;9.190;2022-11-20T06:50:45;8.50;99.90
21666;DHT22;10994;45.486;9.190;2022-11-20T06:53:11;8.50;99.90
21666;DHT22;10994;45.486;9.190;2022-11-20T06:55:37;8.50;99.90
21666;DHT22;10994;45.486;9.190;2022-11-20T06:58:07;8.60;99.90
21666;DHT22;10994;45.486;9.190;2022-11-20T07:00:32;8.60;99.90
21666;DHT22;10994;45.486;9.190;2022-11-20T07:02:58;8.70;99.90
21666;DHT22;10994;45.486;9.190;2022-11-20T07:05:27;8.60;99.90
21666;DHT22;10994;45.486;9.190;2022-11-20T07:07:56;8.70;99.90
21666;DHT22;10994;45.486;9.190;2022-11-20T07:10:21;8.70;99.90
21666;DHT22;10994;45.486;9.190;2022-11-20T07:12:54;8.70;99.90
21666;DHT22;10994;45.486;9.190;2022-11-20T07:15:21;8.60;99.90
21666;DHT22;10994;45.486;9.190;2022-11-20T07:17:47;8.60;99.90
21666;DHT22;10994;45.486;9.190;2022-11-20T07:20:13;8.60;99.90
21666;DHT22;10994;45.486;9.190;2022-11-20T07:22:39;8.60;99.90
21666;DHT22;10994;45.486;9.190;2022-11-20T07:25:06;8.50;99.90
21666;DHT22;10994;45.486;9.190;2022-11-20T07:27:32;8.50;99.90
21666;DHT22;10994;45.486;9.190;2022-11-20T07:29:58;8.50;99.90
21666;DHT22;10994;45.486;9.190;2022-11-20T07:32:23;8.60;99.90
21666;DHT22;10994;45.486;9.190;2022-11-20T07:34:49;8.60;99.90
21666;DHT22;10994;45.486;9.190;2022-11-20T07:37:15;8.90;99.90
21666;DHT22;10994;45.486;9.190;2022-11-20T07:39:42;8.90;99.90
21666;DHT22;10994;45.486;9.190;2022-11-20T07:42:08;8.90;99.90
21666;DHT22;10994;45.486;9.190;2022-11-20T07:44:36;8.90;99.90
21666;DHT22;10994;45.486;9.190;2022-11-20T07:47:02;8.80;99.90
21666;DHT22;10994;45.486;9.190;2022-11-20T07:49:28;8.70;99.90
21666;DHT22;10994;45.486;9.190;2022-11-20T07:51:53;8.80;99.90
21666;DHT22;10994;45.486;9.190;2022-11-20T07:54:22;9.00;99.90
21666;DHT22;10994;45.486;9.190;2022-11-20T07:56:48;9.20;99.90
21666;DHT22;10994;45.486;9.190;2022-11-20T07:59:14;9.20;99.90
21666;DHT22;10994;45.486;9.190;2022-11-20T08:01:41;9.10;99.90
21666;DHT22;10994;45.486;9.190;2022-11-20T08:04:08;9.20;99.90
21666;DHT22;10994;45.486;9.190;2022-11-20T08:06:34;9.20;99.90
21666;DHT22;10994;45.486;9.190;2022-11-20T08:09:00;9.30;99.90
21666;DHT22;10994;45.486;9.190;2022-11-20T08:11:26;9.40;99.90
21666;DHT22;10994;45.486;9.190;2022-11-20T08:14:10;9.40;99.90
21666;DHT22;10994;45.486;9.190;2022-11-20T08:16:43;9.40;99.90
21666;DHT22;10994;45.486;9.190;2022-11-20T08:19:10;9.30;99.90
21666;DHT22;10994;45.486;9.190;2022-11-20T08:21:36;9.30;99.90
21666;DHT22;10994;45.486;9.190;2022-11-20T08:24:02;9.40;99.90
21666;DHT22;10994;45.486;9.190;2022-11-20T08:26:27;9.50;99.90
21666;DHT22;10994;45.486;9.190;2022-11-20T08:28:57;9.70;99.90
21666;DHT22;10994;45.486;9.190;2022-11-20T08:31:27;10.00;99.90
21666;DHT22;10994;45.486;9.190;2022-11-20T08:33:53;10.00;99.90
21666;DHT22;10994;45.486;9.190;2022-11-20T08:36:20;10.00;99.90
21666;DHT22;10994;45.486;9.190;2022-11-20T08:38:50;12.10;99.90
21666;DHT22;10994;45.486;9.190;2022-11-20T08:41:17;12.80;99.90
21666;DHT22;10994;45.486;9.190;2022-11-20T08:43:54;12.30;99.90
21666;DHT22;10994;45.486;9.190;2022-11-20T08:46:20;11.80;99.90
21666;DHT22;10994;45.486;9.190;2022-11-20T08:48:46;11.50;99.90
21666;DHT22;10994;45.486;9.190;2022-11-20T08:51:12;11.20;99.90
21666;DHT22;10994;45.486;9.190;2022-11-20T08:53:38;11.10;99.90
21666;DHT22;10994;45.486;9.190;2022-11-20T08:56:05;10.90;99.90
21666;DHT22;10994;45.486;9.190;2022-11-20T08:58:30;10.90;99.90
21666;DHT22;10994;45.486;9.190;2022-11-20T09:00:56;10.80;99.90
21666;DHT22;10994;45.486;9.190;2022-11-20T09:03:22;10.90;99.90
21666;DHT22;10994;45.486;9.190;2022-11-20T09:05:48;11.00;99.90
21666;DHT22;10994;45.486;9.190;2022-11-20T09:08:14;10.90;99.90
21666;DHT22;10994;45.486;9.190;2022-11-20T09:10:39;10.90;99.90
21666;DHT22;10994;45.486;9.190;2022-11-20T09:13:05;10.90;99.90
21666;DHT22;10994;45.486;9.190;2022-11-20T09:15:31;11.00;99.90
21666;DHT22;10994;45.486;9.190;2022-11-20T09:17:59;11.00;99.90
21666;DHT22;10994;45.486;9.190;2022-11-20T09:20:26;11.10;99.90
21666;DHT22;10994;45.486;9.190;2022-11-20T09:22:52;11.20;99.90
21666;DHT22;10994;45.486;9.190;2022-11-20T09:25:18;11.30;99.90
21666;DHT22;10994;45.486;9.190;2022-11-20T09:27:44;11.30;99.90
21666;DHT22;10994;45.486;9.190;2022-11-20T09:30:12;11.40;99.90
21666;DHT22;10994;45.486;9.190;2022-11-20T09:32:42;11.50;99.90
21666;DHT22;10994;45.486;9.190;2022-11-20T09:35:08;11.50;99.90
21666;DHT22;10994;45.486;9.190;2022-11-20T09:37:34;11.50;99.90
21666;DHT22;10994;45.486;9.190;2022-11-20T09:39:59;11.60;99.90
21666;DHT22;10994;45.486;9.190;2022-11-20T09:48:14;11.70;99.90
21666;DHT22;10994;45.486;9.190;2022-11-20T09:50:55;11.80;99.90
21666;DHT22;10994;45.486;9.190;2022-11-20T09:53:51;11.80;99.90
21666;DHT22;10994;45.486;9.190;2022-11-20T09:56:21;11.90;99.90
21666;DHT22;10994;45.486;9.190;2022-11-20T09:58:55;11.90;99.90
21666;DHT22;10994;45.486;9.190;2022-11-20T10:01:26;12.00;99.90
21666;DHT22;10994;45.486;9.190;2022-11-20T10:04:08;12.00;99.90
21666;DHT22;10994;45.486;9.190;2022-11-20T10:06:51;12.00;99.90
21666;DHT22;10994;45.486;9.190;2022-11-20T10:09:29;11.90;99.90
21666;DHT22;10994;45.486;9.190;2022-11-20T10:15:33;12.10;99.90
21666;DHT22;10994;45.486;9.190;2022-11-20T10:21:00;12.20;99.90
21666;DHT22;10994;45.486;9.190;2022-11-20T10:26:07;12.20;99.90
21666;DHT22;10994;45.486;9.190;2022-11-20T10:28:56;12.20;99.90
21666;DHT22;10994;45.486;9.190;2022-11-20T10:31:33;12.20;99.90
21666;DHT22;10994;45.486;9.190;2022-11-20T10:34:03;12.20;99.90
21666;DHT22;10994;45.486;9.190;2022-11-20T10:36:34;12.20;99.90
21666;DHT22;10994;45.486;9.190;2022-11-20T10:39:39;12.30;99.90
21666;DHT22;10994;45.486;9.190;2022-11-20T10:42:15;12.20;99.90
21666;DHT22;10994;45.486;9.190;2022-11-20T10:44:47;12.20;99.90
21666;DHT22;10994;45.486;9.190;2022-11-20T10:47:27;12.10;99.90
21666;DHT22;10994;45.486;9.190;2022-11-20T10:49:55;12.00;99.90
21666;DHT22;10994;45.486;9.190;2022-11-20T10:56:09;12.20;99.90
21666;DHT22;10994;45.486;9.190;2022-11-20T10:58:25;12.20;99.90
21666;DHT22;10994;45.486;9.190;2022-11-20T11:01:04;12.30;99.90
21666;DHT22;10994;45.486;9.190;2022-11-20T11:03:31;12.00;99.90
21666;DHT22;10994;45.486;9.190;2022-11-20T11:06:32;11.90;99.90
21666;DHT22;10994;45.486;9.190;2022-11-20T11:09:02;12.10;99.90
21666;DHT22;10994;45.486;9.190;2022-11-20T11:11:32;12.20;99.90
21666;DHT22;10994;45.486;9.190;2022-11-20T11:14:19;12.20;99.90
21666;DHT22;10994;45.486;9.190;2022-11-20T11:16:54;12.30;99.90
21666;DHT22;10994;45.486;9.190;2022-11-20T11:19:21;12.40;99.90
21666;DHT22;10994;45.486;9.190;2022-11-20T11:21:51;12.40;99.90
21666;DHT22;10994;45.486;9.190;2022-11-20T11:24:22;12.40;99.90
21666;DHT22;10994;45.486;9.190;2022-11-20T11:27:12;12.50;99.90
21666;DHT22;10994;45.486;9.190;2022-11-20T11:29:38;12.50;99.90
21666;DHT22;10994;45.486;9.190;2022-11-20T11:32:07;12.50;99.90
21666;DHT22;10994;45.486;9.190;2022-11-20T11:34:33;12.60;99.90
21666;DHT22;10994;45.486;9.190;2022-11-20T11:37:01;12.70;99.90
21666;DHT22;10994;45.486;9.190;2022-11-20T11:39:30;12.70;99.90
21666;DHT22;10994;45.486;9.190;2022-11-20T11:41:57;12.80;99.90
21666;DHT22;10994;45.486;9.190;2022-11-20T11:44:33;12.80;99.90
21666;DHT22;10994;45.486;9.190;2022-11-20T11:47:29;12.80;99.90
21666;DHT22;10994;45.486;9.190;2022-11-20T11:53:16;12.60;99.90
21666;DHT22;10994;45.486;9.190;2022-11-20T11:55:45;12.80;99.90
21666;DHT22;10994;45.486;9.190;2022-11-20T11:58:38;12.80;99.90
21666;DHT22;10994;45.486;9.190;2022-11-20T12:03:48;12.90;99.90
21666;DHT22;10994;45.486;9.190;2022-11-20T12:06:17;12.90;99.90
21666;DHT22;10994;45.486;9.190;2022-11-20T12:09:02;12.90;99.90
21666;DHT22;10994;45.486;9.190;2022-11-20T12:14:21;13.50;99.90
21666;DHT22;10994;45.486;9.190;2022-11-20T12:16:51;13.90;99.90
21666;DHT22;10994;45.486;9.190;2022-11-20T12:19:19;15.50;99.90
21666;DHT22;10994;45.486;9.190;2022-11-20T12:30:10;14.80;99.90
21666;DHT22;10994;45.486;9.190;2022-11-20T12:32:46;14.20;99.90
21666;DHT22;10994;45.486;9.190;2022-11-20T12:43:27;13.70;99.90
21666;DHT22;10994;45.486;9.190;2022-11-20T12:51:51;13.50;99.90
21666;DHT22;10994;45.486;9.190;2022-11-20T12:54:42;13.50;99.90
21666;DHT22;10994;45.486;9.190;2022-11-20T13:00:14;13.50;99.90
21666;DHT22;10994;45.486;9.190;2022-11-20T13:06:33;13.70;99.90
21666;DHT22;10994;45.486;9.190;2022-11-20T13:08:42;13.70;99.90
21666;DHT22;10994;45.486;9.190;2022-11-20T13:13:43;13.70;99.90
21666;DHT22;10994;45.486;9.190;2022-11-20T13:16:14;13.70;99.90
21666;DHT22;10994;45.486;9.190;2022-11-20T13:18:42;13.70;99.90
21666;DHT22;10994;45.486;9.190;2022-11-20T13:21:21;13.70;99.90
21666;DHT22;10994;45.486;9.190;2022-11-20T13:23:48;13.70;99.90
21666;DHT22;10994;45.486;9.190;2022-11-20T13:26:22;13.70;99.90
21666;DHT22;10994;45.486;9.190;2022-11-20T13:29:16;13.70;99.90
21666;DHT22;10994;45.486;9.190;2022-11-20T13:31:44;13.70;99.90
21666;DHT22;10994;45.486;9.190;2022-11-20T13:34:13;13.70;99.90
21666;DHT22;10994;45.486;9.190;2022-11-20T13:36:51;13.70;99.90
21666;DHT22;10994;45.486;9.190;2022-11-20T13:39:35;13.80;99.90
21666;DHT22;10994;45.486;9.190;2022-11-20T13:44:41;13.80;99.90
21666;DHT22;10994;45.486;9.190;2022-11-20T13:47:20;13.80;99.90
21666;DHT22;10994;45.486;9.190;2022-11-20T13:49:47;13.70;99.90
21666;DHT22;10994;45.486;9.190;2022-11-20T14:00:16;13.60;99.90
21666;DHT22;10994;45.486;9.190;2022-11-20T14:02:44;13.70;99.90
21666;DHT22;10994;45.486;9.190;2022-11-20T14:05:22;13.60;99.90
21666;DHT22;10994;45.486;9.190;2022-11-20T14:07:56;13.60;99.90
21666;DHT22;10994;45.486;9.190;2022-11-20T14:10:26;13.70;99.90
21666;DHT22;10994;45.486;9.190;2022-11-20T14:12:52;13.70;99.90
21666;DHT22;10994;45.486;9.190;2022-11-20T14:17:50;13.70;99.90
21666;DHT22;10994;45.486;9.190;2022-11-20T14:20:16;13.70;99.90
21666;DHT22;10994;45.486;9.190;2022-11-20T14:22:52;13.80;99.90
21666;DHT22;10994;45.486;9.190;2022-11-20T14:25:21;13.70;99.90
21666;DHT22;10994;45.486;9.190;2022-11-20T14:27:54;13.80;99.90
21666;DHT22;10994;45.486;9.190;2022-11-20T14:30:23;13.80;99.90
21666;DHT22;10994;45.486;9.190;2022-11-20T14:32:50;13.80;99.90
21666;DHT22;10994;45.486;9.190;2022-11-20T14:35:28;13.70;99.90
21666;DHT22;10994;45.486;9.190;2022-11-20T14:37:55;13.70;99.90
21666;DHT22;10994;45.486;9.190;2022-11-20T14:42:52;13.70;99.90
21666;DHT22;10994;45.486;9.190;2022-11-20T14:45:18;13.70;99.90
21666;DHT22;10994;45.486;9.190;2022-11-20T14:47:45;13.70;99.90
21666;DHT22;10994;45.486;9.190;2022-11-20T14:50:26;13.70;99.90
21666;DHT22;10994;45.486;9.190;2022-11-20T14:55:30;13.60;99.90
21666;DHT22;10994;45.486;9.190;2022-11-20T14:57:59;13.70;99.90
21666;DHT22;10994;45.486;9.190;2022-11-20T15:00:26;13.60;99.90
21666;DHT22;10994;45.486;9.190;2022-11-20T15:02:52;13.60;99.90
21666;DHT22;10994;45.486;9.190;2022-11-20T15:05:21;13.60;99.90
21666;DHT22;10994;45.486;9.190;2022-11-20T15:07:50;13.50;99.90
21666;DHT22;10994;45.486;9.190;2022-11-20T15:10:25;13.60;99.90
21666;DHT22;10994;45.486;9.190;2022-11-20T15:13:04;13.60;99.90
21666;DHT22;10994;45.486;9.190;2022-11-20T15:15:36;13.60;99.90
21666;DHT22;10994;45.486;9.190;2022-11-20T15:18:04;13.70;99.90
21666;DHT22;10994;45.486;9.190;2022-11-20T15:20:32;13.70;99.90
21666;DHT22;10994;45.486;9.190;2022-11-20T15:22:58;13.70;99.90
21666;DHT22;10994;45.486;9.190;2022-11-20T15:25:25;13.70;99.90
21666;DHT22;10994;45.486;9.190;2022-11-20T15:27:56;13.70;99.90
21666;DHT22;10994;45.486;9.190;2022-11-20T15:30:23;13.70;99.90
21666;DHT22;10994;45.486;9.190;2022-11-20T15:32:49;13.70;99.90
21666;DHT22;10994;45.486;9.190;2022-11-20T15:35:15;13.80;99.90
21666;DHT22;10994;45.486;9.190;2022-11-20T15:37:41;13.70;99.90
21666;DHT22;10994;45.486;9.190;2022-11-20T15:40:08;13.70;99.90
21666;DHT22;10994;45.486;9.190;2022-11-20T15:42:34;13.70;99.90
21666;DHT22;10994;45.486;9.190;2022-11-20T15:45:00;13.60;99.90
21666;DHT22;10994;45.486;9.190;2022-11-20T15:47:28;13.60;99.90
21666;DHT22;10994;45.486;9.190;2022-11-20T15:49:55;13.60;99.90
21666;DHT22;10994;45.486;9.190;2022-11-20T15:52:21;13.50;99.90
21666;DHT22;10994;45.486;9.190;2022-11-20T15:54:47;13.60;99.90
21666;DHT22;10994;45.486;9.190;2022-11-20T15:57:12;13.60;99.90
21666;DHT22;10994;45.486;9.190;2022-11-20T15:59:38;13.50;99.90
21666;DHT22;10994;45.486;9.190;2022-11-20T16:02:13;13.50;99.90
21666;DHT22;10994;45.486;9.190;2022-11-20T16:04:39;13.40;99.90
21666;DHT22;10994;45.486;9.190;2022-11-20T16:07:05;13.40;99.90
21666;DHT22;10994;45.486;9.190;2022-11-20T16:09:31;13.40;99.90
21666;DHT22;10994;45.486;9.190;2022-11-20T16:11:57;13.30;99.90
21666;DHT22;10994;45.486;9.190;2022-11-20T16:14:26;13.30;99.90
21666;DHT22;10994;45.486;9.190;2022-11-20T16:17:11;13.30;99.90
21666;DHT22;10994;45.486;9.190;2022-11-20T16:19:37;13.30;99.90
21666;DHT22;10994;45.486;9.190;2022-11-20T16:22:03;13.30;99.90
21666;DHT22;10994;45.486;9.190;2022-11-20T16:24:30;13.30;99.90
21666;DHT22;10994;45.486;9.190;2022-11-20T16:26:56;13.30;99.90
21666;DHT22;10994;45.486;9.190;2022-11-20T16:29:22;13.30;99.90
21666;DHT22;10994;45.486;9.190;2022-11-20T16:31:48;13.30;99.90
21666;DHT22;10994;45.486;9.190;2022-11-20T16:34:15;13.30;99.90
21666;DHT22;10994;45.486;9.190;2022-11-20T16:36:42;13.30;99.90
21666;DHT22;10994;45.486;9.190;2022-11-20T16:39:10;13.30;99.90
21666;DHT22;10994;45.486;9.190;2022-11-20T16:41:36;13.20;99.90
21666;DHT22;10994;45.486;9.190;2022-11-20T16:44:06;13.30;99.90
21666;DHT22;10994;45.486;9.190;2022-11-20T16:46:32;13.30;99.90
21666;DHT22;10994;45.486;9.190;2022-11-20T16:49:02;13.30;99.90
21666;DHT22;10994;45.486;9.190;2022-11-20T16:51:30;13.20;99.90
21666;DHT22;10994;45.486;9.190;2022-11-20T16:53:56;13.30;99.90
21666;DHT22;10994;45.486;9.190;2022-11-20T16:56:24;13.30;99.90
21666;DHT22;10994;45.486;9.190;2022-11-20T16:58:50;13.20;99.90
21666;DHT22;10994;45.486;9.190;2022-11-20T17:01:19;13.20;99.90
21666;DHT22;10994;45.486;9.190;2022-11-20T17:03:52;13.00;99.90
21666;DHT22;10994;45.486;9.190;2022-11-20T17:06:21;13.00;99.90
21666;DHT22;10994;45.486;9.190;2022-11-20T17:08:47;13.00;99.90
21666;DHT22;10994;45.486;9.190;2022-11-20T17:11:15;13.00;99.90
21666;DHT22;10994;45.486;9.190;2022-11-20T17:13:42;13.00;99.90
21666;DHT22;10994;45.486;9.190;2022-11-20T17:16:13;13.10;99.90
21666;DHT22;10994;45.486;9.190;2022-11-20T17:18:39;13.00;99.90
21666;DHT22;10994;45.486;9.190;2022-11-20T17:21:06;13.00;99.90
21666;DHT22;10994;45.486;9.190;2022-11-20T17:23:37;13.00;99.90
21666;DHT22;10994;45.486;9.190;2022-11-20T17:28:30;12.70;99.90
21666;DHT22;10994;45.486;9.190;2022-11-20T17:31:03;12.70;99.90
21666;DHT22;10994;45.486;9.190;2022-11-20T17:33:29;12.80;99.90
21666;DHT22;10994;45.486;9.190;2022-11-20T17:35:55;12.70;99.90
21666;DHT22;10994;45.486;9.190;2022-11-20T17:38:21;12.70;99.90
21666;DHT22;10994;45.486;9.190;2022-11-20T17:40:50;12.80;99.90
21666;DHT22;10994;45.486;9.190;2022-11-20T17:43:16;12.80;99.90
21666;DHT22;10994;45.486;9.190;2022-11-20T17:45:42;12.90;99.90
21666;DHT22;10994;45.486;9.190;2022-11-20T17:48:09;12.90;99.90
21666;DHT22;10994;45.486;9.190;2022-11-20T17:50:35;12.80;99.90
21666;DHT22;10994;45.486;9.190;2022-11-20T17:53:00;12.80;99.90
21666;DHT22;10994;45.486;9.190;2022-11-20T17:55:26;12.80;99.90
21666;DHT22;10994;45.486;9.190;2022-11-20T17:58:12;12.80;99.90
21666;DHT22;10994;45.486;9.190;2022-11-20T18:00:37;12.80;99.90
21666;DHT22;10994;45.486;9.190;2022-11-20T18:03:03;12.80;99.90
21666;DHT22;10994;45.486;9.190;2022-11-20T18:05:29;12.80;99.90
21666;DHT22;10994;45.486;9.190;2022-11-20T18:07:55;12.80;99.90
21666;DHT22;10994;45.486;9.190;2022-11-20T18:10:20;12.70;99.90
21666;DHT22;10994;45.486;9.190;2022-11-20T18:12:46;12.60;99.90
21666;DHT22;10994;45.486;9.190;2022-11-20T18:15:12;12.60;99.90
21666;DHT22;10994;45.486;9.190;2022-11-20T18:17:37;12.60;99.90
21666;DHT22;10994;45.486;9.190;2022-11-20T18:20:03;12.50;99.90
21666;DHT22;10994;45.486;9.190;2022-11-20T18:22:29;12.50;99.90
21666;DHT22;10994;45.486;9.190;2022-11-20T18:24:55;12.60;99.90
21666;DHT22;10994;45.486;9.190;2022-11-20T18:27:21;12.50;99.90
21666;DHT22;10994;45.486;9.190;2022-11-20T18:29:48;12.30;99.90
21666;DHT22;10994;45.486;9.190;2022-11-20T18:32:17;12.20;99.90
21666;DHT22;10994;45.486;9.190;2022-11-20T18:34:42;12.30;99.90
21666;DHT22;10994;45.486;9.190;2022-11-20T18:37:08;12.30;99.90
21666;DHT22;10994;45.486;9.190;2022-11-20T18:39:34;12.30;99.90
21666;DHT22;10994;45.486;9.190;2022-11-20T18:42:00;12.20;99.90
21666;DHT22;10994;45.486;9.190;2022-11-20T18:44:45;12.40;99.90
21666;DHT22;10994;45.486;9.190;2022-11-20T18:47:32;12.40;99.90
21666;DHT22;10994;45.486;9.190;2022-11-20T18:50:01;12.50;99.90
21666;DHT22;10994;45.486;9.190;2022-11-20T18:52:27;12.50;99.90
21666;DHT22;10994;45.486;9.190;2022-11-20T18:54:54;12.60;99.90
21666;DHT22;10994;45.486;9.190;2022-11-20T18:57:22;12.60;99.90
21666;DHT22;10994;45.486;9.190;2022-11-20T18:59:48;12.60;99.90
21666;DHT22;10994;45.486;9.190;2022-11-20T19:02:18;12.50;99.90
21666;DHT22;10994;45.486;9.190;2022-11-20T19:04:44;12.50;99.90
21666;DHT22;10994;45.486;9.190;2022-11-20T19:07:10;12.50;99.90
21666;DHT22;10994;45.486;9.190;2022-11-20T19:09:44;12.50;99.90
21666;DHT22;10994;45.486;9.190;2022-11-20T19:12:11;12.70;99.90
21666;DHT22;10994;45.486;9.190;2022-11-20T19:14:37;12.70;99.90
21666;DHT22;10994;45.486;9.190;2022-11-20T19:17:04;12.70;99.90
21666;DHT22;10994;45.486;9.190;2022-11-20T19:19:32;12.70;99.90
21666;DHT22;10994;45.486;9.190;2022-11-20T19:21:57;12.70;99.90
21666;DHT22;10994;45.486;9.190;2022-11-20T19:24:23;12.80;99.90
21666;DHT22;10994;45.486;9.190;2022-11-20T19:26:49;12.70;99.90
21666;DHT22;10994;45.486;9.190;2022-11-20T19:29:17;12.80;99.90
21666;DHT22;10994;45.486;9.190;2022-11-20T19:31:44;12.70;99.90
21666;DHT22;10994;45.486;9.190;2022-11-20T19:34:10;12.70;99.90
21666;DHT22;10994;45.486;9.190;2022-11-20T19:36:38;12.80;99.90
21666;DHT22;10994;45.486;9.190;2022-11-20T19:39:05;12.60;99.90
21666;DHT22;10994;45.486;9.190;2022-11-20T19:41:33;12.50;99.90
21666;DHT22;10994;45.486;9.190;2022-11-20T19:44:04;12.50;99.90
21666;DHT22;10994;45.486;9.190;2022-11-20T19:46:32;12.50;99.90
21666;DHT22;10994;45.486;9.190;2022-11-20T19:48:58;12.50;99.90
21666;DHT22;10994;45.486;9.190;2022-11-20T19:51:29;12.50;99.90
21666;DHT22;10994;45.486;9.190;2022-11-20T19:53:56;12.50;99.90
21666;DHT22;10994;45.486;9.190;2022-11-20T19:56:22;12.50;99.90
21666;DHT22;10994;45.486;9.190;2022-11-20T19:58:48;12.30;99.90
21666;DHT22;10994;45.486;9.190;2022-11-20T20:01:17;12.30;99.90
21666;DHT22;10994;45.486;9.190;2022-11-20T20:03:44;12.30;99.90
21666;DHT22;10994;45.486;9.190;2022-11-20T20:06:13;12.20;99.90